Aérodrome :
LOGIN :

S'inscrire | Disclaimer

   EN    FR    IT 

 










Légende :    VFR   VFR Marginal   IFR   IFR Intensif   IFR Très Intensif
Visi : 
Plafond : 
>= 8 km
>= 3000ft
5 à 8 km
1000 à 3000 ft
1500m à 5 km
500 à 1000 ft
800 à 1500m
200 à 500 ft
< 800m
< 200 ft
Symboles :   Orages  Brouillard  Fortes neiges  Fortes précipitations  Vent > 20 kt
SIGMETs :   Divers  Orages  Givrage  Turbulence  Onde Orograph.  Cendres Volcan.







- Altitude de l'aérodrome : 614 ft
- Code IATA : CRL


EBCI - Charleroi

DERNIER METAR :
  • 181850Z 15012KT CAVOK 06/01 Q1012 NOSIG

METARs EXPIRÉS :
  • 181820Z 17008KT CAVOK 06/01 Q1012 NOSIG
  • 181750Z 15010KT CAVOK 06/01 Q1013 NOSIG
  • 181720Z 14011KT CAVOK 06/01 Q1013 NOSIG
  • 181650Z 15011KT 120V180 CAVOK 06/01 Q1013 NOSIG
  • 181620Z 14011KT 120V180 CAVOK 06/01 Q1014 NOSIG
  • 181550Z 14010KT CAVOK 06/00 Q1014 NOSIG

TAF TAF EBCI
Valide du 18 à 12h jusqu'au 19 à 18h UTC


181110Z 1812/1918 16010KT 9999 FEW015
BECMG 1901/1903 BKN008
TEMPO 1901/1904 3500 RA BKN004 SCT020TCU
BECMG 1903/1905 22010KT
BECMG 1910/1912 SCT012
PROB30
TEMPO 1910/1918 4000 SHRA BKN012 SCT020CB
Pas de NOTAMs connus pour ce terrain.



MET'MAP, la Météo Aéronautique d'un coup d'oeil ! - Copyright ORBIFLY Décembre 2007 - Disclaimer

ORBIFLY MET'MAP TEAM :

Programmation & Développement : Alexandra Zaïnal
Conception & Développement : Baudouin d'Aumeries
Co-Programmation & Développement : Marc-Olivier Méhu
Soutien technique & logistique : Manuel Goepfert

Contact : metmap@orbifly.com




SOURCES & CREDITS :

   NOAA